Time,TemperatureF,DewpointF,PressureIn,WindDirection,WindDirectionDegrees,WindSpeedMPH,WindSpeedGustMPH,Humidity,HourlyPrecipIn,Conditions,Clouds,dailyrainin,SoftwareType,DateUTC
2013-03-26 00:00:00,28.0,28.0,-100.00,WNW,299,9.0,12.0,99,-99.99,,,-99.99,,2013-03-26 07:00:00,
2013-03-26 01:00:00,28.0,28.0,-100.00,NW,307,9.0,12.0,100,-99.99,,,-99.99,,2013-03-26 08:00:00,
2013-03-26 02:00:00,27.0,27.0,-100.00,WNW,302,10.0,12.0,100,-99.99,,,-99.99,,2013-03-26 09:00:00,
2013-03-26 03:00:00,26.0,26.0,-100.00,WNW,283,10.0,12.0,100,-99.99,,,-99.99,,2013-03-26 10:00:00,
2013-03-26 04:00:00,28.0,27.0,-100.00,WNW,287,10.0,13.0,97,-99.99,,,-99.99,,2013-03-26 11:00:00,
2013-03-26 05:00:00,26.0,25.0,-100.00,WNW,287,9.0,12.0,97,-99.99,,,-99.99,,2013-03-26 12:00:00,
2013-03-26 06:00:00,27.0,27.0,-100.00,NNW,328,7.0,12.0,100,-99.99,,,-99.99,,2013-03-26 13:00:00,
2013-03-26 07:00:00,29.0,29.0,-100.00,NNW,331,6.0,8.0,99,-99.99,,,-99.99,,2013-03-26 14:00:00,
2013-03-26 08:00:00,28.0,27.0,-100.00,NNW,340,3.0,8.0,97,-99.99,,,-99.99,,2013-03-26 15:00:00,
2013-03-26 10:00:00,34.0,33.0,-100.00,East,94,2.0,5.0,96,-99.99,,,-99.99,,2013-03-26 17:00:00,
2013-03-26 11:00:00,34.0,31.0,-100.00,North,6,3.0,6.0,90,-99.99,,,-99.99,,2013-03-26 18:00:00,
2013-03-26 12:00:00,34.0,32.0,-100.00,ENE,77,1.0,3.0,93,-99.99,,,-99.99,,2013-03-26 19:00:00,
2013-03-26 13:00:00,36.0,33.0,-100.00,SW,224,1.0,5.0,89,-99.99,,,-99.99,,2013-03-26 20:00:00,
2013-03-26 14:00:00,36.0,33.0,-100.00,SSW,206,3.0,6.0,90,-99.99,,,-99.99,,2013-03-26 21:00:00,
2013-03-26 15:00:00,36.0,33.0,-100.00,WSW,258,2.0,6.0,89,-99.99,,,-99.99,,2013-03-26 22:00:00,
2013-03-26 16:00:00,35.0,32.0,-100.00,NNW,327,2.0,7.0,90,-99.99,,,-99.99,,2013-03-26 23:00:00,
2013-03-26 17:00:00,34.0,32.0,-100.00,ENE,59,2.0,5.0,92,-99.99,,,-99.99,,2013-03-27 00:00:00,
2013-03-26 18:00:00,34.0,32.0,-100.00,North,359,1.0,3.0,94,-99.99,,,-99.99,,2013-03-27 01:00:00,
2013-03-26 19:00:00,32.0,32.0,-100.00,NNE,33,5.0,12.0,98,-99.99,,,-99.99,,2013-03-27 02:00:00,
2013-03-26 20:00:00,32.0,32.0,-100.00,ENE,75,5.0,9.0,99,-99.99,,,-99.99,,2013-03-27 03:00:00,
2013-03-26 21:00:00,31.0,30.0,-100.00,East,87,6.0,13.0,97,-99.99,,,-99.99,,2013-03-27 04:00:00,
2013-03-26 22:00:00,30.0,29.0,-100.00,ESE,102,9.0,16.0,96,-99.99,,,-99.99,,2013-03-27 05:00:00,
2013-03-26 23:00:00,30.0,29.0,-100.00,East,95,12.0,16.0,97,-99.99,,,-99.99,,2013-03-27 06:00:00,